Time;durP1;ratioP1;P1;durP2;ratioP2;P2;SDS_P1;SDS_P2;PMS_P1;PMS_P2;Temp;Humidity;BMP_temperature;BMP_pressure;BME280_temperature;BME280_humidity;BME280_pressure;Samples;Min_cycle;Max_cycle;Signal;HPM_P1;HPM_P2
2022/01/13 00:01:36;;;;;;;32.40;17.43;;;4.70;99.90;;;;;;5074715;28;20944;-71
2022/01/13 00:04:03;;;;;;;32.20;17.83;;;4.70;99.90;;;;;;5075521;28;20557;-72
2022/01/13 00:06:29;;;;;;;43.97;19.33;;;4.70;99.90;;;;;;5078726;28;20458;-72
2022/01/13 00:08:59;;;;;;;38.67;20.00;;;4.70;99.90;;;;;;5079401;28;20500;-72
2022/01/13 00:11:29;;;;;;;35.83;19.83;;;4.70;99.90;;;;;;5078839;28;20798;-72
2022/01/13 00:14:11;;;;;;;48.00;21.67;;;4.70;99.90;;;;;;5078413;28;20920;-70
2022/01/13 00:16:41;;;;;;;44.90;20.17;;;4.70;99.90;;;;;;5078149;28;20438;-71
2022/01/13 00:19:20;;;;;;;45.17;21.23;;;4.80;99.90;;;;;;5077998;28;20544;-71
2022/01/13 00:21:57;;;;;;;38.67;20.03;;;4.80;99.90;;;;;;5077930;28;20475;-72
2022/01/13 00:24:27;;;;;;;42.87;18.90;;;4.70;99.90;;;;;;5078065;28;20439;-71
2022/01/13 00:26:55;;;;;;;34.60;18.80;;;4.70;99.90;;;;;;5078699;28;20450;-72
2022/01/13 00:29:29;;;;;;;42.40;20.47;;;4.70;99.90;;;;;;5078196;28;20782;-72
2022/01/13 00:31:56;;;;;;;42.93;19.93;;;4.70;99.90;;;;;;5077420;28;20438;-72
2022/01/13 00:34:23;;;;;;;41.83;22.03;;;4.70;99.90;;;;;;5077511;28;20540;-71
2022/01/13 00:36:50;;;;;;;42.40;20.77;;;4.70;99.90;;;;;;5078054;28;20825;-71
2022/01/13 00:39:17;;;;;;;43.13;20.20;;;4.80;99.90;;;;;;5077447;28;20770;-72
2022/01/13 00:41:46;;;;;;;41.50;21.30;;;4.70;99.90;;;;;;5077605;28;20458;-71
2022/01/13 00:44:19;;;;;;;43.33;21.97;;;4.80;99.90;;;;;;5077727;28;20458;-71
2022/01/13 00:46:47;;;;;;;39.70;18.93;;;4.80;99.90;;;;;;5077292;28;20546;-71
2022/01/13 00:49:15;;;;;;;40.60;21.30;;;4.70;99.90;;;;;;5077849;28;20835;-72
2022/01/13 00:51:43;;;;;;;49.87;23.50;;;4.70;99.90;;;;;;5077396;28;20485;-71
2022/01/13 00:54:10;;;;;;;42.00;23.07;;;4.70;99.90;;;;;;5077668;28;20481;-72
2022/01/13 00:56:37;;;;;;;48.40;23.13;;;4.70;99.90;;;;;;5077223;28;20477;-71
2022/01/13 00:59:07;;;;;;;46.53;25.27;;;4.80;99.90;;;;;;5077183;28;20468;-72
2022/01/13 01:01:35;;;;;;;42.97;23.87;;;4.70;99.90;;;;;;5077650;28;20990;-72
2022/01/13 01:04:02;;;;;;;39.00;23.23;;;4.80;99.90;;;;;;5077040;28;20835;-72
2022/01/13 01:06:29;;;;;;;42.00;22.03;;;4.80;99.90;;;;;;5077256;28;20824;-73
2022/01/13 01:08:56;;;;;;;42.30;19.67;;;4.80;99.90;;;;;;5076229;28;20970;-72
2022/01/13 01:11:26;;;;;;;41.07;18.83;;;4.70;99.90;;;;;;5077368;28;20571;-71
2022/01/13 01:13:55;;;;;;;39.10;19.10;;;4.70;99.90;;;;;;5076581;28;20458;-71
2022/01/13 01:16:25;;;;;;;30.77;18.20;;;4.70;99.90;;;;;;5076942;28;20462;-71
2022/01/13 01:18:59;;;;;;;34.03;19.43;;;4.70;99.90;;;;;;5076468;28;20827;-72
2022/01/13 01:21:46;;;;;;;31.60;18.37;;;4.70;99.90;;;;;;5077206;28;20482;-71
2022/01/13 01:24:42;;;;;;;38.83;19.70;;;4.80;99.90;;;;;;5076458;28;20439;-71
2022/01/13 01:27:17;;;;;;;36.17;19.70;;;4.80;99.90;;;;;;5077219;28;20497;-71
2022/01/13 01:29:52;;;;;;;43.70;20.50;;;4.80;99.90;;;;;;5076724;28;20799;-71
2022/01/13 01:32:21;;;;;;;41.33;20.43;;;4.80;99.90;;;;;;5077005;28;20476;-72
2022/01/13 01:34:55;;;;;;;40.30;21.07;;;4.80;99.90;;;;;;5076804;28;20461;-71
2022/01/13 01:37:26;;;;;;;43.43;20.77;;;4.80;99.90;;;;;;5076921;28;20537;-71
2022/01/13 01:39:54;;;;;;;46.97;21.40;;;4.80;99.90;;;;;;5076810;28;20449;-72
2022/01/13 01:42:23;;;;;;;43.70;19.03;;;4.80;99.90;;;;;;5077002;28;20473;-72
2022/01/13 01:44:54;;;;;;;44.23;20.97;;;4.80;99.90;;;;;;5076631;28;20466;-72
2022/01/13 01:47:23;;;;;;;40.20;20.30;;;4.80;99.90;;;;;;5076510;28;20559;-71
2022/01/13 01:49:53;;;;;;;40.60;22.03;;;4.80;99.90;;;;;;5075881;28;20484;-71
2022/01/13 01:52:22;;;;;;;42.23;21.47;;;4.80;99.90;;;;;;5076016;28;20458;-71
2022/01/13 01:54:50;;;;;;;45.40;19.50;;;4.80;99.90;;;;;;5075739;28;20458;-72
2022/01/13 01:57:18;;;;;;;37.73;21.40;;;4.80;99.90;;;;;;5076399;28;20458;-71
2022/01/13 01:59:46;;;;;;;36.43;19.57;;;4.80;99.90;;;;;;5075513;28;20508;-73
2022/01/13 02:02:14;;;;;;;38.30;21.20;;;4.80;99.90;;;;;;5076370;28;20465;-71
2022/01/13 02:04:44;;;;;;;39.87;21.30;;;4.70;99.90;;;;;;5075791;28;20465;-71
2022/01/13 02:07:14;;;;;;;44.40;20.30;;;4.70;99.90;;;;;;5076132;28;20454;-72
2022/01/13 02:09:48;;;;;;;33.20;18.33;;;4.70;99.90;;;;;;5075184;28;20478;-71
2022/01/13 02:12:27;;;;;;;40.60;21.20;;;4.70;99.90;;;;;;5075877;28;20541;-71
2022/01/13 02:14:58;;;;;;;41.33;20.47;;;4.70;99.90;;;;;;5075715;28;20769;-72
2022/01/13 02:17:28;;;;;;;44.83;20.53;;;4.70;99.90;;;;;;5075517;28;20561;-72
2022/01/13 02:19:58;;;;;;;42.60;20.30;;;4.70;99.90;;;;;;5075589;28;20458;-72
2022/01/13 02:22:26;;;;;;;39.30;21.07;;;4.70;99.90;;;;;;5075200;28;20535;-72
2022/01/13 02:24:53;;;;;;;50.30;21.67;;;4.70;99.90;;;;;;5075502;28;20466;-71
2022/01/13 02:27:20;;;;;;;45.97;20.77;;;4.70;99.90;;;;;;5075821;28;20450;-72
2022/01/13 02:29:47;;;;;;;42.40;20.70;;;4.70;99.90;;;;;;5074332;28;20482;-71
2022/01/13 02:32:14;;;;;;;40.37;19.30;;;4.70;99.90;;;;;;5075858;28;20468;-72
2022/01/13 02:34:42;;;;;;;39.47;20.70;;;4.70;99.90;;;;;;5075138;28;20459;-73
2022/01/13 02:37:09;;;;;;;40.27;20.13;;;4.70;99.90;;;;;;5074972;28;20454;-72
2022/01/13 02:39:38;;;;;;;39.90;22.50;;;4.70;99.90;;;;;;5074896;28;20476;-72
2022/01/13 02:42:12;;;;;;;44.23;20.50;;;4.70;99.90;;;;;;5075140;28;20458;-71
2022/01/13 02:44:48;;;;;;;40.50;19.10;;;4.70;99.90;;;;;;5075054;28;20443;-71
2022/01/13 02:47:33;;;;;;;37.03;19.03;;;4.70;99.90;;;;;;5075289;28;20522;-72
2022/01/13 02:50:00;;;;;;;42.90;21.30;;;4.80;99.90;;;;;;5074942;28;20466;-71
2022/01/13 02:52:28;;;;;;;47.57;23.70;;;4.80;99.90;;;;;;5074714;28;20462;-72
2022/01/13 02:54:56;;;;;;;46.87;23.10;;;4.80;99.90;;;;;;5074933;28;20462;-72
2022/01/13 02:57:23;;;;;;;42.17;20.80;;;4.70;99.90;;;;;;5075820;28;20468;-72
2022/01/13 02:59:50;;;;;;;45.37;23.00;;;4.70;99.90;;;;;;5075516;28;20477;-72
2022/01/13 03:02:16;;;;;;;41.73;22.60;;;4.70;99.90;;;;;;5074641;28;20470;-72
2022/01/13 03:04:48;;;;;;;40.50;20.37;;;4.70;99.90;;;;;;5074799;28;20786;-72
2022/01/13 03:07:15;;;;;;;35.50;20.50;;;4.70;99.90;;;;;;5075419;28;20454;-72
2022/01/13 03:09:43;;;;;;;43.70;22.97;;;4.70;99.90;;;;;;5075232;28;20493;-72
2022/01/13 03:12:12;;;;;;;48.50;22.03;;;4.70;99.90;;;;;;5074854;28;20458;-72
2022/01/13 03:14:39;;;;;;;46.43;22.47;;;4.70;99.90;;;;;;5074693;28;20454;-71
2022/01/13 03:17:06;;;;;;;42.60;21.47;;;4.70;99.90;;;;;;5075174;28;20458;-71
2022/01/13 03:19:33;;;;;;;46.10;22.57;;;4.60;99.90;;;;;;5074589;28;20781;-71
2022/01/13 03:22:00;;;;;;;55.17;24.77;;;4.60;99.90;;;;;;5074807;28;20461;-71
2022/01/13 03:24:27;;;;;;;40.47;21.60;;;4.60;99.90;;;;;;5074964;28;20550;-72
2022/01/13 03:26:55;;;;;;;45.33;23.83;;;4.60;99.90;;;;;;5074933;28;20461;-72
2022/01/13 03:29:24;;;;;;;41.77;21.90;;;4.60;99.90;;;;;;5074799;28;20478;-72
2022/01/13 03:31:51;;;;;;;41.90;22.30;;;4.60;99.90;;;;;;5075694;28;20499;-73
2022/01/13 03:34:19;;;;;;;48.13;20.37;;;4.60;99.90;;;;;;5074954;28;20850;-72
2022/01/13 03:36:46;;;;;;;47.00;20.80;;;4.60;99.90;;;;;;5075184;28;20762;-72
2022/01/13 03:39:13;;;;;;;45.87;21.57;;;4.50;99.90;;;;;;5074623;28;20515;-72
2022/01/13 03:41:41;;;;;;;39.00;20.00;;;4.60;99.90;;;;;;5078475;28;20465;-72
2022/01/13 03:44:17;;;;;;;45.73;22.27;;;4.60;99.90;;;;;;5078828;28;20759;-72
2022/01/13 03:46:45;;;;;;;45.67;20.67;;;4.60;99.90;;;;;;5079298;28;20479;-71
2022/01/13 03:49:12;;;;;;;46.23;21.57;;;4.60;99.90;;;;;;5078411;28;20504;-72
2022/01/13 03:52:27;;;;;;;53.60;22.27;;;4.60;99.90;;;;;;5078698;28;20458;-72
2022/01/13 03:55:31;;;;;;;47.07;21.63;;;4.50;99.90;;;;;;5017553;28;20452;-72
2022/01/13 03:58:43;;;;;;;46.80;22.40;;;4.50;99.90;;;;;;5017671;28;20556;-72
2022/01/13 04:01:57;;;;;;;39.90;20.83;;;4.60;99.90;;;;;;5017283;28;20769;-72
2022/01/13 04:04:25;;;;;;;41.17;20.50;;;4.50;99.90;;;;;;5022187;28;20457;-72
2022/01/13 04:07:05;;;;;;;37.77;20.83;;;4.50;99.90;;;;;;5078517;28;20443;-72
2022/01/13 04:10:13;;;;;;;43.90;20.83;;;4.50;99.90;;;;;;5078509;28;20466;-72
2022/01/13 04:12:40;;;;;;;42.00;19.50;;;4.50;99.90;;;;;;5077777;28;20445;-72
2022/01/13 04:15:11;;;;;;;48.53;21.77;;;4.50;99.90;;;;;;5077885;28;20941;-72
2022/01/13 04:17:38;;;;;;;52.03;23.17;;;4.50;99.90;;;;;;5078014;28;20442;-72
2022/01/13 04:20:08;;;;;;;41.03;21.27;;;4.50;99.90;;;;;;5077702;28;20490;-72
2022/01/13 04:22:37;;;;;;;44.73;21.70;;;4.50;99.90;;;;;;5077912;28;20466;-72
2022/01/13 04:25:06;;;;;;;39.93;21.20;;;4.50;99.90;;;;;;5077597;28;20465;-72
2022/01/13 04:27:37;;;;;;;49.33;21.90;;;4.50;99.90;;;;;;5077841;28;20464;-71
2022/01/13 04:33:04;;;;;;;54.23;24.03;;;4.40;99.90;;;;;;5016217;28;20574;-71
2022/01/13 04:35:32;;;;;;;46.30;22.50;;;4.40;99.90;;;;;;5062726;28;20838;-72
2022/01/13 04:37:59;;;;;;;57.77;26.37;;;4.50;99.90;;;;;;5077481;28;20454;-71
2022/01/13 04:40:26;;;;;;;51.60;25.40;;;4.50;99.90;;;;;;5077568;28;20541;-72
2022/01/13 04:42:56;;;;;;;53.37;27.07;;;4.40;99.90;;;;;;5077391;28;20482;-71
2022/01/13 04:45:25;;;;;;;53.23;25.20;;;4.40;99.90;;;;;;5077542;28;20837;-71
2022/01/13 04:47:53;;;;;;;56.77;26.50;;;4.40;99.90;;;;;;5077422;28;20963;-71
2022/01/13 04:50:23;;;;;;;66.73;28.80;;;4.40;99.90;;;;;;5077583;28;20474;-71
2022/01/13 04:52:53;;;;;;;60.50;27.17;;;4.30;99.90;;;;;;5076112;28;20463;-71
2022/01/13 04:55:25;;;;;;;50.27;26.87;;;4.40;99.90;;;;;;5077034;28;20938;-70
2022/01/13 04:57:54;;;;;;;66.70;26.80;;;4.30;99.90;;;;;;5077139;28;20530;-70
2022/01/13 05:00:22;;;;;;;62.60;26.47;;;4.40;99.90;;;;;;5077210;28;20489;-72
2022/01/13 05:02:49;;;;;;;68.90;26.33;;;4.40;99.90;;;;;;5077385;28;20464;-73
2022/01/13 05:05:15;;;;;;;66.63;27.40;;;4.30;99.90;;;;;;5076898;28;20919;-72
2022/01/13 05:07:42;;;;;;;57.53;26.40;;;4.30;99.90;;;;;;5077245;28;20569;-73
2022/01/13 05:10:11;;;;;;;53.57;26.60;;;4.30;99.90;;;;;;5077257;28;20505;-72
2022/01/13 05:12:42;;;;;;;58.80;28.73;;;4.30;99.90;;;;;;5078748;28;20541;-72
2022/01/13 05:15:16;;;;;;;51.43;26.87;;;4.30;99.90;;;;;;5078589;28;20478;-72
2022/01/13 05:20:39;;;;;;;62.93;28.07;;;4.20;99.90;;;;;;5073770;28;20504;-73
2022/01/13 05:23:07;;;;;;;62.47;29.30;;;4.20;99.90;;;;;;5077413;28;20444;-72
2022/01/13 05:25:36;;;;;;;69.40;29.30;;;4.20;99.90;;;;;;5077161;28;20454;-72
2022/01/13 05:28:04;;;;;;;69.43;29.67;;;4.20;99.90;;;;;;5077069;28;20461;-72
2022/01/13 05:30:32;;;;;;;62.10;27.17;;;4.20;99.90;;;;;;5076810;28;20478;-73
2022/01/13 05:32:59;;;;;;;54.70;26.33;;;4.20;99.90;;;;;;5076802;28;20473;-72
2022/01/13 05:35:26;;;;;;;64.60;28.43;;;4.20;99.90;;;;;;5076477;28;20888;-72
2022/01/13 05:37:53;;;;;;;59.33;27.77;;;4.20;99.90;;;;;;5077409;28;20466;-72
2022/01/13 05:40:20;;;;;;;64.10;27.57;;;4.20;99.90;;;;;;5077730;28;20458;-72
2022/01/13 05:42:49;;;;;;;74.37;29.73;;;4.20;99.90;;;;;;5078420;28;20832;-72
2022/01/13 05:45:17;;;;;;;65.60;28.27;;;4.20;99.90;;;;;;5079131;28;20450;-71
2022/01/13 05:47:47;;;;;;;61.70;26.80;;;4.20;99.90;;;;;;5078847;28;20533;-73
2022/01/13 05:50:17;;;;;;;64.87;27.80;;;4.20;99.90;;;;;;5078178;28;20823;-71
2022/01/13 05:52:45;;;;;;;66.97;28.37;;;4.20;99.90;;;;;;5078667;28;20546;-72
2022/01/13 05:55:13;;;;;;;63.77;24.20;;;4.20;99.90;;;;;;5077754;28;20770;-72
2022/01/13 05:57:40;;;;;;;58.33;26.27;;;4.20;99.90;;;;;;5076247;28;20462;-72
2022/01/13 06:00:11;;;;;;;53.53;23.27;;;4.10;99.90;;;;;;5075863;28;20461;-72
2022/01/13 06:02:38;;;;;;;56.30;25.13;;;4.10;99.90;;;;;;5075966;28;20442;-72
2022/01/13 06:05:05;;;;;;;62.03;26.47;;;4.10;99.90;;;;;;5075926;28;20454;-71
2022/01/13 06:07:32;;;;;;;62.13;26.00;;;4.20;99.90;;;;;;5076122;28;20465;-72
2022/01/13 06:09:59;;;;;;;56.97;24.10;;;4.20;99.90;;;;;;5075536;28;20950;-72
2022/01/13 06:12:32;;;;;;;61.10;26.33;;;4.20;99.90;;;;;;5075531;28;20465;-73
2022/01/13 06:15:00;;;;;;;65.87;25.10;;;4.20;99.90;;;;;;5075689;28;20588;-72
2022/01/13 06:17:28;;;;;;;68.90;25.30;;;4.20;99.90;;;;;;5076274;28;20758;-72
2022/01/13 06:19:55;;;;;;;52.83;23.00;;;4.20;99.90;;;;;;5076076;28;20461;-72
2022/01/13 06:22:24;;;;;;;58.47;25.00;;;4.20;99.90;;;;;;5077154;28;20454;-72
2022/01/13 06:24:52;;;;;;;55.67;24.53;;;4.20;99.90;;;;;;5076109;28;20774;-73
2022/01/13 06:27:21;;;;;;;49.00;22.50;;;4.20;99.90;;;;;;5076041;28;20757;-72
2022/01/13 06:29:48;;;;;;;52.47;22.17;;;4.20;99.90;;;;;;5075618;28;20861;-72
2022/01/13 06:32:15;;;;;;;57.80;23.73;;;4.20;99.90;;;;;;5075614;28;20454;-72
2022/01/13 06:34:43;;;;;;;58.70;24.43;;;4.20;99.90;;;;;;5075350;28;20537;-72
2022/01/13 06:37:10;;;;;;;65.40;23.93;;;4.20;99.90;;;;;;5075583;28;20455;-71
2022/01/13 06:39:37;;;;;;;53.47;24.13;;;4.30;99.90;;;;;;5075076;28;20461;-72
2022/01/13 06:42:05;;;;;;;77.73;27.07;;;4.30;99.90;;;;;;5076122;28;20458;-72
2022/01/13 06:44:32;;;;;;;59.83;23.47;;;4.30;99.90;;;;;;5075094;28;20922;-72
2022/01/13 06:46:59;;;;;;;64.40;24.97;;;4.30;99.90;;;;;;5074919;28;20961;-71
2022/01/13 06:49:29;;;;;;;64.70;26.50;;;4.30;99.90;;;;;;5075001;28;20438;-72
2022/01/13 06:51:58;;;;;;;65.90;26.60;;;4.30;99.90;;;;;;5075261;28;20488;-72
2022/01/13 06:54:26;;;;;;;58.17;26.03;;;4.30;99.90;;;;;;5075066;28;20465;-72
2022/01/13 06:56:53;;;;;;;58.20;25.47;;;4.30;99.90;;;;;;5075486;28;20454;-73
2022/01/13 06:59:20;;;;;;;62.83;25.60;;;4.30;99.90;;;;;;5074817;28;20781;-72
2022/01/13 07:01:48;;;;;;;65.93;26.50;;;4.30;99.90;;;;;;5075483;28;20482;-72
2022/01/13 07:04:15;;;;;;;58.37;24.57;;;4.30;99.90;;;;;;5075076;28;20450;-72
2022/01/13 07:06:43;;;;;;;58.40;24.63;;;4.30;99.90;;;;;;5075053;28;20460;-72
2022/01/13 07:09:13;;;;;;;68.27;26.07;;;4.30;99.90;;;;;;5075398;28;20458;-73
2022/01/13 07:11:40;;;;;;;68.73;27.27;;;4.30;99.90;;;;;;5075797;28;20477;-73
2022/01/13 07:14:09;;;;;;;67.57;25.13;;;4.30;99.90;;;;;;5074695;28;20537;-72
2022/01/13 07:16:36;;;;;;;69.67;26.90;;;4.30;99.90;;;;;;5074727;28;20466;-73
2022/01/13 07:19:05;;;;;;;65.13;25.27;;;4.30;99.90;;;;;;5075475;28;20450;-73
2022/01/13 07:21:33;;;;;;;53.37;24.57;;;4.30;99.90;;;;;;5075465;28;20739;-73
2022/01/13 07:24:00;;;;;;;54.27;24.80;;;4.40;99.90;;;;;;5075077;28;20454;-74
2022/01/13 07:26:28;;;;;;;54.30;24.53;;;4.40;99.90;;;;;;5075447;28;20493;-73
2022/01/13 07:28:55;;;;;;;64.83;28.30;;;4.40;99.90;;;;;;5074542;28;20454;-73
2022/01/13 07:31:22;;;;;;;78.77;30.60;;;4.40;99.90;;;;;;5075552;28;20493;-72
2022/01/13 07:33:49;;;;;;;62.50;29.37;;;4.40;99.90;;;;;;5074700;28;20836;-73
2022/01/13 07:36:16;;;;;;;67.60;27.70;;;4.40;99.90;;;;;;5075367;28;20458;-73
2022/01/13 07:38:43;;;;;;;80.17;28.63;;;4.40;99.90;;;;;;5074360;28;20793;-73
2022/01/13 07:41:10;;;;;;;55.00;28.10;;;4.40;99.90;;;;;;5074925;28;20451;-72
2022/01/13 07:43:41;;;;;;;66.67;28.43;;;4.40;99.90;;;;;;5074667;28;20465;-72
2022/01/13 07:46:08;;;;;;;69.33;27.83;;;4.40;99.90;;;;;;5074897;28;20613;-73
2022/01/13 07:48:35;;;;;;;73.63;28.57;;;4.40;99.90;;;;;;5074487;28;20509;-73
2022/01/13 07:51:02;;;;;;;68.37;28.13;;;4.40;99.90;;;;;;5075885;28;20854;-71
2022/01/13 07:53:31;;;;;;;66.83;29.10;;;4.40;99.90;;;;;;5075628;28;20531;-74
2022/01/13 07:55:58;;;;;;;61.37;26.00;;;4.40;99.90;;;;;;5076132;28;20841;-72
2022/01/13 07:58:25;;;;;;;62.97;26.00;;;4.40;99.90;;;;;;5074593;28;20801;-73
2022/01/13 08:00:53;;;;;;;65.63;26.50;;;4.40;99.90;;;;;;5074914;28;20485;-73
2022/01/13 08:03:20;;;;;;;67.70;26.27;;;4.40;99.90;;;;;;5074879;28;20458;-73
2022/01/13 08:05:46;;;;;;;61.17;28.97;;;4.40;99.90;;;;;;5074640;28;20484;-73
2022/01/13 08:08:13;;;;;;;50.17;25.50;;;4.40;99.90;;;;;;5074772;28;20458;-72
2022/01/13 08:10:40;;;;;;;58.40;25.57;;;4.40;99.90;;;;;;5075312;28;20955;-73
2022/01/13 08:13:07;;;;;;;61.10;25.50;;;4.40;99.90;;;;;;5074611;28;20745;-73
2022/01/13 08:15:35;;;;;;;67.70;26.40;;;4.40;99.90;;;;;;5074626;28;20461;-72
2022/01/13 08:20:48;;;;;;;65.13;26.53;;;4.30;99.90;;;;;;5074915;28;20430;-71
2022/01/13 08:23:15;;;;;;;67.57;26.07;;;4.40;99.90;;;;;;5075201;28;20481;-71
2022/01/13 08:25:42;;;;;;;63.10;27.87;;;4.40;99.90;;;;;;5074437;28;20465;-72
2022/01/13 08:28:10;;;;;;;60.80;24.20;;;4.40;99.90;;;;;;5077090;28;20474;-72
2022/01/13 08:30:37;;;;;;;64.33;25.53;;;4.40;99.90;;;;;;5078651;28;20470;-73
2022/01/13 08:33:06;;;;;;;61.63;25.30;;;4.40;99.90;;;;;;5078031;28;20481;-72
2022/01/13 08:35:33;;;;;;;60.37;24.80;;;4.40;99.90;;;;;;5078057;28;20763;-72
2022/01/13 08:38:06;;;;;;;58.67;25.00;;;4.40;99.90;;;;;;5077536;28;20465;-72
2022/01/13 08:40:36;;;;;;;62.87;23.63;;;4.40;99.90;;;;;;5077081;28;20448;-73
2022/01/13 08:43:04;;;;;;;63.53;27.10;;;4.50;99.90;;;;;;5077517;28;20763;-73
2022/01/13 08:45:32;;;;;;;72.87;26.03;;;4.50;99.90;;;;;;5077537;28;20453;-73
2022/01/13 08:47:59;;;;;;;65.40;26.03;;;4.40;99.90;;;;;;5076539;28;20820;-72
2022/01/13 08:50:27;;;;;;;61.83;23.93;;;4.40;99.90;;;;;;5076957;28;20844;-72
2022/01/13 08:52:55;;;;;;;68.37;27.23;;;4.40;99.90;;;;;;5077488;28;20508;-73
2022/01/13 08:55:22;;;;;;;72.00;25.07;;;4.40;99.90;;;;;;5076700;28;20461;-73
2022/01/13 08:57:49;;;;;;;57.90;24.70;;;4.40;99.90;;;;;;5077436;28;20462;-71
2022/01/13 09:00:16;;;;;;;61.07;23.67;;;4.50;99.90;;;;;;5077731;28;20462;-72
2022/01/13 09:02:44;;;;;;;57.90;26.90;;;4.50;99.90;;;;;;5079280;28;20463;-72
2022/01/13 09:05:13;;;;;;;61.37;25.17;;;4.50;99.90;;;;;;5078313;28;20455;-72
2022/01/13 09:07:41;;;;;;;63.93;27.17;;;4.50;99.90;;;;;;5078121;28;20454;-72
2022/01/13 09:10:11;;;;;;;63.03;24.73;;;4.50;99.90;;;;;;5078081;28;20462;-72
2022/01/13 09:12:38;;;;;;;65.93;25.83;;;4.50;99.90;;;;;;5077942;28;20551;-72
2022/01/13 09:15:16;;;;;;;65.03;25.00;;;4.40;99.90;;;;;;5077354;28;20484;-71
2022/01/13 09:17:44;;;;;;;56.53;24.63;;;4.40;99.90;;;;;;5076964;28;20446;-73
2022/01/13 09:20:13;;;;;;;66.83;28.50;;;4.40;99.90;;;;;;5076914;28;20451;-72
2022/01/13 09:22:41;;;;;;;63.17;25.30;;;4.40;99.90;;;;;;5076909;28;20466;-71
2022/01/13 09:25:10;;;;;;;75.77;29.03;;;4.40;99.90;;;;;;5076777;28;20549;-71
2022/01/13 09:27:39;;;;;;;62.40;26.07;;;4.50;99.90;;;;;;5076767;28;20455;-71
2022/01/13 09:30:07;;;;;;;61.20;25.60;;;4.50;99.90;;;;;;5076248;28;20468;-72
2022/01/13 09:32:35;;;;;;;69.20;25.10;;;4.50;99.90;;;;;;5076567;28;20835;-72
2022/01/13 09:35:02;;;;;;;57.00;25.27;;;4.50;99.90;;;;;;5076292;28;20835;-72
2022/01/13 09:37:29;;;;;;;66.33;26.60;;;4.50;99.90;;;;;;5075897;28;20461;-72
2022/01/13 09:39:58;;;;;;;62.87;23.80;;;4.50;99.90;;;;;;5075660;28;20476;-72
2022/01/13 09:42:27;;;;;;;57.33;26.20;;;4.50;99.90;;;;;;5076418;28;20883;-72
2022/01/13 09:44:54;;;;;;;55.43;25.53;;;4.50;99.90;;;;;;5075802;28;20941;-72
2022/01/13 09:47:21;;;;;;;63.10;23.50;;;4.50;99.90;;;;;;5076615;28;20481;-72
2022/01/13 09:49:50;;;;;;;57.50;24.37;;;4.50;99.90;;;;;;5076026;28;20458;-72
2022/01/13 09:52:17;;;;;;;64.40;25.27;;;4.50;99.90;;;;;;5077908;28;20488;-71
2022/01/13 09:54:44;;;;;;;63.53;28.10;;;4.50;99.90;;;;;;5079961;28;20458;-72
2022/01/13 09:57:12;;;;;;;64.17;26.27;;;4.60;99.90;;;;;;5078308;28;20469;-72
2022/01/13 09:59:39;;;;;;;59.27;25.50;;;4.60;99.90;;;;;;5078193;28;20469;-73
2022/01/13 10:02:06;;;;;;;58.93;24.70;;;4.60;99.90;;;;;;5076741;28;20954;-71
2022/01/13 10:04:46;;;;;;;64.17;25.60;;;4.60;99.90;;;;;;5076476;28;20545;-72
2022/01/13 10:07:17;;;;;;;61.50;24.50;;;4.50;99.90;;;;;;5075928;28;20446;-72
2022/01/13 10:09:56;;;;;;;62.37;24.87;;;4.50;99.90;;;;;;5075539;28;20446;-73
2022/01/13 10:12:32;;;;;;;66.53;26.03;;;4.50;99.90;;;;;;5076472;28;20981;-73
2022/01/13 10:17:48;;;;;;;51.10;23.37;;;4.40;99.90;;;;;;5076888;28;20425;-73
2022/01/13 10:20:18;;;;;;;53.70;23.47;;;4.40;99.90;;;;;;5076637;28;20454;-72
2022/01/13 10:22:45;;;;;;;56.67;25.67;;;4.40;99.90;;;;;;5076086;28;20833;-73
2022/01/13 10:25:26;;;;;;;60.63;22.80;;;4.40;99.90;;;;;;5075619;28;20454;-73
2022/01/13 10:27:54;;;;;;;58.53;25.40;;;4.40;99.90;;;;;;5075453;28;20474;-73
2022/01/13 10:30:25;;;;;;;59.57;24.13;;;4.50;99.90;;;;;;5074875;28;20907;-72
2022/01/13 10:32:53;;;;;;;60.93;25.40;;;4.40;99.90;;;;;;5075135;28;20474;-73
2022/01/13 10:35:21;;;;;;;67.20;25.97;;;4.50;99.90;;;;;;5075011;28;20489;-72
2022/01/13 10:37:53;;;;;;;54.73;22.27;;;4.50;99.90;;;;;;5075130;28;20489;-74
2022/01/13 10:40:23;;;;;;;66.30;24.43;;;4.50;99.90;;;;;;5074894;28;20484;-72
2022/01/13 10:43:07;;;;;;;55.63;23.23;;;4.50;99.90;;;;;;5075202;28;20845;-73
2022/01/13 10:45:38;;;;;;;57.67;22.73;;;4.50;99.90;;;;;;5074977;28;20442;-72
2022/01/13 10:48:07;;;;;;;58.33;22.53;;;4.50;99.90;;;;;;5075116;28;20505;-73
2022/01/13 10:50:37;;;;;;;58.60;22.70;;;4.50;99.90;;;;;;5074421;28;20565;-72
2022/01/13 10:53:08;;;;;;;57.13;21.53;;;4.50;99.90;;;;;;5074765;28;20478;-72
2022/01/13 10:55:41;;;;;;;43.33;20.73;;;4.50;99.90;;;;;;5075652;28;20464;-73
2022/01/13 10:58:09;;;;;;;58.90;22.70;;;4.50;99.90;;;;;;5075754;28;20442;-72
2022/01/13 11:00:37;;;;;;;61.07;23.33;;;4.50;99.90;;;;;;5075063;28;20454;-73
2022/01/13 11:03:10;;;;;;;55.60;20.47;;;4.50;99.90;;;;;;5074858;28;20454;-73
2022/01/13 11:05:41;;;;;;;51.37;21.70;;;4.50;99.90;;;;;;5074590;28;20879;-73
2022/01/13 11:08:09;;;;;;;45.10;18.93;;;4.50;99.90;;;;;;5074963;28;20458;-72
2022/01/13 11:10:40;;;;;;;49.43;19.80;;;4.50;99.90;;;;;;5074882;28;20454;-73
2022/01/13 11:13:19;;;;;;;50.47;21.80;;;4.50;99.90;;;;;;5074447;28;20481;-73
2022/01/13 11:15:53;;;;;;;52.27;20.13;;;4.50;99.90;;;;;;5074883;28;20937;-72
2022/01/13 11:18:21;;;;;;;43.23;18.60;;;4.50;99.90;;;;;;5075146;28;20454;-73
2022/01/13 11:20:49;;;;;;;48.03;19.70;;;4.60;99.90;;;;;;5075178;28;20742;-73
2022/01/13 11:23:17;;;;;;;44.47;19.43;;;4.60;99.90;;;;;;5075840;28;20503;-72
2022/01/13 11:25:45;;;;;;;51.37;20.47;;;4.70;99.90;;;;;;5077397;28;20461;-74
2022/01/13 11:28:13;;;;;;;48.73;20.50;;;4.60;99.90;;;;;;5075432;28;20466;-72
2022/01/13 11:30:41;;;;;;;46.20;19.97;;;4.70;99.90;;;;;;5075030;28;20462;-73
2022/01/13 11:33:09;;;;;;;44.53;20.27;;;4.70;99.90;;;;;;5074954;28;20509;-73
2022/01/13 11:35:44;;;;;;;51.87;20.20;;;4.70;99.90;;;;;;5074771;28;20474;-72
2022/01/13 11:38:16;;;;;;;49.10;19.60;;;4.70;99.90;;;;;;5075622;28;20446;-72
2022/01/13 11:40:45;;;;;;;47.37;18.17;;;4.70;99.90;;;;;;5075139;28;20895;-73
2022/01/13 11:43:34;;;;;;;44.03;20.63;;;4.70;99.90;;;;;;5075044;28;20454;-73
2022/01/13 11:46:13;;;;;;;36.90;15.90;;;4.70;99.90;;;;;;5074213;28;20466;-73
2022/01/13 11:48:59;;;;;;;42.07;18.30;;;4.70;99.90;;;;;;5074715;28;20478;-73
2022/01/13 11:51:28;;;;;;;37.70;18.80;;;4.70;99.90;;;;;;5074576;28;20858;-73
2022/01/13 11:53:57;;;;;;;36.23;17.30;;;4.70;99.90;;;;;;5074381;28;20549;-73
2022/01/13 11:56:25;;;;;;;41.73;18.90;;;4.70;99.90;;;;;;5074472;28;20458;-73
2022/01/13 11:58:53;;;;;;;40.13;18.17;;;4.70;99.90;;;;;;5074686;28;20922;-73
2022/01/13 12:01:24;;;;;;;42.83;18.47;;;4.80;99.90;;;;;;5075891;28;20454;-74
2022/01/13 12:03:56;;;;;;;42.33;17.63;;;4.80;99.90;;;;;;5078118;28;20446;-73
2022/01/13 12:06:37;;;;;;;40.00;16.83;;;4.80;99.90;;;;;;5078291;28;20812;-73
2022/01/13 12:09:05;;;;;;;37.43;16.83;;;4.90;99.90;;;;;;5078130;28;20442;-73
2022/01/13 12:11:39;;;;;;;39.50;17.07;;;4.90;99.90;;;;;;5078312;28;20485;-73
2022/01/13 12:14:41;;;;;;;40.60;16.67;;;4.90;99.90;;;;;;5077493;28;20457;-73
2022/01/13 12:17:22;;;;;;;39.70;15.83;;;5.00;99.90;;;;;;5078313;28;20446;-73
2022/01/13 12:19:52;;;;;;;34.43;16.57;;;5.00;99.90;;;;;;5077901;28;20437;-74
2022/01/13 12:22:40;;;;;;;43.17;17.20;;;5.10;99.90;;;;;;5078050;28;20816;-72
2022/01/13 12:25:08;;;;;;;34.43;15.03;;;5.00;99.90;;;;;;5077925;28;20461;-72
2022/01/13 12:27:49;;;;;;;38.27;16.50;;;5.00;99.90;;;;;;5077841;28;20462;-74
2022/01/13 12:30:25;;;;;;;29.93;15.20;;;5.00;99.90;;;;;;5077852;28;20461;-74
2022/01/13 12:32:53;;;;;;;34.67;15.97;;;5.00;99.90;;;;;;5077218;28;20571;-75
2022/01/13 12:35:41;;;;;;;40.97;17.87;;;5.10;99.90;;;;;;5078095;28;20451;-73
2022/01/13 12:38:11;;;;;;;27.03;13.10;;;5.10;99.90;;;;;;5077128;28;20449;-74
2022/01/13 12:40:42;;;;;;;31.77;15.20;;;5.10;99.90;;;;;;5077912;28;20500;-73
2022/01/13 12:43:37;;;;;;;30.37;14.80;;;5.10;99.90;;;;;;5078097;28;20820;-74
2022/01/13 12:46:06;;;;;;;30.43;14.50;;;5.10;99.90;;;;;;5078317;28;20774;-73
2022/01/13 12:48:36;;;;;;;33.40;15.67;;;5.10;99.90;;;;;;5077044;28;20497;-74
2022/01/13 12:51:04;;;;;;;32.50;14.63;;;5.10;99.90;;;;;;5078314;28;20454;-74
2022/01/13 12:53:34;;;;;;;28.77;13.63;;;5.10;99.90;;;;;;5077352;28;20478;-73
2022/01/13 12:56:04;;;;;;;32.20;15.33;;;5.20;99.90;;;;;;5077900;28;20822;-74
2022/01/13 12:58:35;;;;;;;26.83;14.27;;;5.20;99.90;;;;;;5076809;28;20956;-73
2022/01/13 13:01:04;;;;;;;27.40;14.27;;;5.20;99.90;;;;;;5079725;28;20450;-73
2022/01/13 13:03:31;;;;;;;30.57;16.67;;;5.20;99.90;;;;;;5076835;28;20454;-73